createdAt,value
2022-12-03T00:01:41.580Z,29.07
2022-12-03T00:04:11.191Z,28.07
2022-12-03T00:06:40.959Z,28.37
2022-12-03T00:09:10.653Z,29.10
2022-12-03T00:11:40.304Z,28.13
2022-12-03T00:14:12.524Z,27.20
2022-12-03T00:16:42.114Z,27.07
2022-12-03T00:19:11.727Z,26.77
2022-12-03T00:21:41.390Z,27.77
2022-12-03T00:24:11.748Z,27.80
2022-12-03T00:26:41.385Z,27.37
2022-12-03T00:29:13.924Z,28.03
2022-12-03T00:31:45.687Z,27.87
2022-12-03T00:34:15.456Z,26.30
2022-12-03T00:36:45.012Z,28.33
2022-12-03T00:39:14.583Z,28.63
2022-12-03T00:41:44.220Z,28.30
2022-12-03T00:44:16.611Z,28.47
2022-12-03T00:46:46.308Z,28.17
2022-12-03T00:49:16.242Z,26.07
2022-12-03T00:51:45.963Z,27.53
2022-12-03T00:54:15.811Z,26.63
2022-12-03T00:56:45.456Z,26.57
2022-12-03T00:59:17.779Z,27.30
2022-12-03T01:01:47.532Z,26.23
2022-12-03T01:04:17.354Z,26.63
2022-12-03T01:06:47.082Z,26.70
2022-12-03T01:09:16.705Z,27.30
2022-12-03T01:11:46.380Z,27.60
2022-12-03T01:14:20.577Z,28.07
2022-12-03T01:16:50.665Z,26.00
2022-12-03T01:19:20.854Z,27.10
2022-12-03T01:21:52.950Z,27.47
2022-12-03T01:24:23.027Z,26.77
2022-12-03T01:26:52.709Z,27.10
2022-12-03T01:29:25.123Z,25.50
2022-12-03T01:32:07.124Z,27.10
2022-12-03T01:34:36.815Z,25.50
2022-12-03T01:37:06.551Z,25.33
2022-12-03T01:39:36.146Z,25.63
2022-12-03T01:42:06.747Z,28.57
2022-12-03T01:44:42.194Z,25.37
2022-12-03T01:47:16.636Z,24.50
2022-12-03T01:49:49.465Z,25.80
2022-12-03T01:52:23.587Z,26.20
2022-12-03T01:54:56.541Z,23.47
2022-12-03T01:57:29.706Z,27.27
2022-12-03T02:00:03.393Z,29.67
2022-12-03T02:02:35.025Z,28.07
2022-12-03T02:05:09.734Z,29.07
2022-12-03T02:07:39.423Z,28.47
2022-12-03T02:10:10.155Z,28.33
2022-12-03T02:12:43.972Z,29.07
2022-12-03T02:15:16.540Z,27.07
2022-12-03T02:17:46.877Z,27.80
2022-12-03T02:20:17.150Z,24.70
2022-12-03T02:22:56.234Z,28.50
2022-12-03T02:25:32.164Z,26.20
2022-12-03T02:28:02.603Z,25.60
2022-12-03T02:30:33.840Z,26.23
2022-12-03T02:33:04.414Z,25.63
2022-12-03T02:35:37.676Z,24.57
2022-12-03T02:38:14.577Z,24.27
2022-12-03T02:40:48.727Z,24.57
2022-12-03T02:43:18.142Z,25.00
2022-12-03T02:45:50.900Z,25.80
2022-12-03T02:48:25.093Z,25.23
2022-12-03T02:50:57.798Z,25.13
2022-12-03T02:53:30.920Z,24.77
2022-12-03T02:56:05.067Z,26.80
2022-12-03T02:58:35.780Z,32.37
2022-12-03T03:01:06.688Z,28.23
2022-12-03T03:03:36.851Z,28.47
2022-12-03T03:06:09.198Z,28.20
2022-12-03T03:08:41.043Z,30.13
2022-12-03T03:11:13.892Z,29.40
2022-12-03T03:13:43.725Z,29.40
2022-12-03T03:16:13.327Z,29.20
2022-12-03T03:18:43.416Z,28.07
2022-12-03T03:21:13.211Z,28.70
2022-12-03T03:23:42.811Z,26.17
2022-12-03T03:26:16.823Z,24.50
2022-12-03T03:28:50.004Z,25.17
2022-12-03T03:31:24.270Z,25.23
2022-12-03T03:33:54.598Z,26.20
2022-12-03T03:36:25.751Z,26.53
2022-12-03T03:38:55.732Z,27.93
2022-12-03T03:41:29.643Z,29.93
2022-12-03T03:43:59.787Z,28.50
2022-12-03T03:46:33.501Z,28.37
2022-12-03T03:49:04.048Z,25.67
2022-12-03T03:51:34.638Z,25.50
2022-12-03T03:54:06.923Z,24.70
2022-12-03T03:56:39.727Z,25.40
2022-12-03T03:59:09.432Z,24.13
2022-12-03T04:01:39.701Z,26.67
2022-12-03T04:04:14.258Z,26.23
2022-12-03T04:06:43.854Z,26.10
2022-12-03T04:09:13.465Z,26.47
2022-12-03T04:11:58.167Z,27.07
2022-12-03T04:14:28.015Z,27.03
2022-12-03T04:16:57.725Z,25.17
2022-12-03T04:19:27.485Z,24.70
2022-12-03T04:22:09.507Z,23.60
2022-12-03T04:24:39.252Z,23.63
2022-12-03T04:27:24.248Z,21.13
2022-12-03T04:29:53.850Z,20.03
2022-12-03T04:32:35.903Z,17.60
2022-12-03T04:35:18.160Z,18.10
2022-12-03T04:37:47.944Z,18.90
2022-12-03T04:40:30.000Z,18.30
2022-12-03T04:43:02.322Z,19.13
2022-12-03T04:45:32.172Z,19.50
2022-12-03T04:48:01.935Z,20.33
2022-12-03T04:50:31.606Z,20.43
2022-12-03T04:53:01.253Z,21.57
2022-12-03T04:55:30.911Z,21.17
2022-12-03T04:58:03.130Z,21.57
2022-12-03T05:00:33.152Z,22.33
2022-12-03T05:03:02.897Z,24.17
2022-12-03T05:05:32.643Z,24.37
2022-12-03T05:08:02.344Z,28.40
2022-12-03T05:10:31.938Z,28.07
2022-12-03T05:13:04.158Z,28.60
2022-12-03T05:15:33.830Z,28.90
2022-12-03T05:18:03.502Z,30.73
2022-12-03T05:20:51.440Z,31.77
2022-12-03T05:23:23.197Z,31.33
2022-12-03T05:25:52.961Z,32.67
2022-12-03T05:28:25.294Z,32.30
2022-12-03T05:30:55.058Z,31.57
2022-12-03T05:33:24.613Z,31.93
2022-12-03T05:35:54.287Z,31.47
2022-12-03T05:38:23.924Z,31.53
2022-12-03T05:40:53.710Z,32.90
2022-12-03T05:43:23.504Z,32.37
2022-12-03T05:45:53.200Z,33.23
2022-12-03T05:48:22.766Z,34.87
2022-12-03T05:50:52.344Z,35.43
2022-12-03T05:53:21.928Z,32.40
2022-12-03T05:55:51.527Z,34.70
2022-12-03T05:58:21.202Z,34.97
2022-12-03T06:00:53.428Z,36.37
2022-12-03T06:03:23.274Z,35.97
2022-12-03T06:05:53.074Z,36.87
2022-12-03T06:08:22.647Z,35.90
2022-12-03T06:10:52.320Z,36.80
2022-12-03T06:13:21.993Z,36.20
2022-12-03T06:15:54.269Z,35.27
2022-12-03T06:18:23.954Z,35.90
2022-12-03T06:20:53.599Z,36.83
2022-12-03T06:23:23.203Z,37.93
2022-12-03T06:25:52.870Z,39.43
2022-12-03T06:28:22.499Z,39.43
2022-12-03T06:30:54.895Z,41.03
2022-12-03T06:33:24.574Z,38.70
2022-12-03T06:35:54.445Z,39.80
2022-12-03T06:38:24.187Z,39.93
2022-12-03T06:40:53.768Z,40.93
2022-12-03T06:43:23.356Z,40.63
2022-12-03T06:45:55.538Z,40.53
2022-12-03T06:48:25.100Z,41.17
2022-12-03T06:50:54.687Z,41.70
2022-12-03T06:53:24.328Z,41.63
2022-12-03T06:55:53.859Z,40.60
2022-12-03T06:58:23.448Z,43.37
2022-12-03T07:00:55.696Z,41.33
2022-12-03T07:03:25.314Z,41.80
2022-12-03T07:05:54.934Z,42.40
2022-12-03T07:08:24.629Z,40.53
2022-12-03T07:10:54.199Z,41.70
2022-12-03T07:13:23.794Z,41.90
2022-12-03T07:15:56.107Z,42.00
2022-12-03T07:18:25.830Z,42.77
2022-12-03T07:20:55.481Z,43.37
2022-12-03T07:23:25.058Z,44.47
2022-12-03T07:25:54.680Z,45.00
2022-12-03T07:28:24.320Z,42.23
2022-12-03T07:30:56.646Z,44.23
2022-12-03T07:33:26.321Z,45.77
2022-12-03T07:35:56.172Z,43.10
2022-12-03T07:38:25.883Z,44.10
2022-12-03T07:40:55.431Z,44.23
2022-12-03T07:43:25.043Z,46.77
2022-12-03T07:45:57.244Z,44.97
2022-12-03T07:48:26.941Z,44.53
2022-12-03T07:50:56.571Z,45.87
2022-12-03T07:53:26.313Z,44.30
2022-12-03T07:55:55.924Z,45.00
2022-12-03T07:58:25.610Z,44.23
2022-12-03T08:00:58.101Z,44.53
2022-12-03T08:03:28.025Z,45.10
2022-12-03T08:05:57.595Z,45.30
2022-12-03T08:08:27.206Z,44.60
2022-12-03T08:10:56.897Z,42.97
2022-12-03T08:13:26.517Z,42.63
2022-12-03T08:15:59.013Z,42.87
2022-12-03T08:18:29.849Z,42.80
2022-12-03T08:20:59.649Z,44.30
2022-12-03T08:23:29.338Z,42.73
2022-12-03T08:26:02.178Z,44.70
2022-12-03T08:28:32.311Z,43.77
2022-12-03T08:31:18.712Z,42.80
2022-12-03T08:33:50.358Z,44.20
2022-12-03T08:36:24.717Z,43.30
2022-12-03T08:38:57.545Z,42.87
2022-12-03T08:41:39.453Z,43.80
2022-12-03T08:44:23.991Z,46.10
2022-12-03T08:47:04.700Z,45.77
2022-12-03T08:49:34.634Z,43.63
2022-12-03T08:52:14.092Z,43.37
2022-12-03T08:54:44.859Z,42.43
2022-12-03T08:57:27.916Z,42.53
2022-12-03T09:00:01.990Z,40.17
2022-12-03T09:02:36.968Z,40.73
2022-12-03T09:05:18.891Z,43.23
2022-12-03T09:07:49.007Z,43.50
2022-12-03T09:10:18.925Z,41.47
2022-12-03T09:12:48.555Z,42.73
2022-12-03T09:15:18.583Z,41.50
2022-12-03T09:17:51.151Z,40.40
2022-12-03T09:20:20.827Z,40.50
2022-12-03T09:22:50.385Z,43.00
2022-12-03T09:25:20.121Z,39.93
2022-12-03T09:27:49.882Z,41.83
2022-12-03T09:30:20.033Z,41.97
2022-12-03T09:32:52.321Z,42.20
2022-12-03T09:35:22.143Z,39.93
2022-12-03T09:37:51.755Z,43.93
2022-12-03T09:40:22.116Z,41.43
2022-12-03T09:42:52.506Z,41.00
2022-12-03T09:45:24.309Z,41.27
2022-12-03T09:47:57.823Z,41.87
2022-12-03T09:50:29.403Z,42.97
2022-12-03T09:53:03.110Z,42.70
2022-12-03T09:55:33.616Z,41.43
2022-12-03T09:58:03.467Z,43.00
2022-12-03T10:00:34.808Z,39.70
2022-12-03T10:03:10.049Z,39.90
2022-12-03T10:05:43.732Z,40.37
2022-12-03T10:08:21.702Z,41.90
2022-12-03T10:10:56.636Z,37.93
2022-12-03T10:13:30.184Z,39.23
2022-12-03T10:16:02.799Z,39.33
2022-12-03T10:18:41.516Z,38.73
2022-12-03T10:21:19.876Z,40.93
2022-12-03T10:23:55.168Z,39.13
2022-12-03T10:26:42.078Z,41.47
2022-12-03T10:29:16.056Z,39.00
2022-12-03T10:31:45.829Z,41.30
2022-12-03T10:34:27.187Z,38.47
2022-12-03T10:37:14.198Z,39.13
2022-12-03T10:39:59.247Z,38.63
2022-12-03T10:42:31.146Z,38.57
2022-12-03T10:45:15.416Z,38.87
2022-12-03T10:47:45.719Z,38.40
2022-12-03T10:50:22.456Z,39.53
2022-12-03T10:52:52.014Z,38.97
2022-12-03T10:55:21.809Z,39.83
2022-12-03T10:57:51.501Z,39.30
2022-12-03T11:00:22.835Z,37.97
2022-12-03T11:02:56.643Z,38.07
2022-12-03T11:05:30.918Z,40.80
2022-12-03T11:08:00.671Z,44.30
2022-12-03T11:10:30.405Z,42.80
2022-12-03T11:13:30.052Z,39.03
2022-12-03T11:16:00.393Z,37.87
2022-12-03T11:18:59.990Z,40.80
2022-12-03T11:21:32.948Z,40.73
2022-12-03T11:24:24.779Z,37.50
2022-12-03T11:27:20.861Z,51.13
2022-12-03T11:30:05.458Z,38.20
2022-12-03T11:33:10.860Z,37.73
2022-12-03T11:36:16.567Z,37.60
2022-12-03T11:38:57.732Z,40.63
2022-12-03T11:41:32.724Z,38.40
2022-12-03T11:44:22.144Z,36.60
2022-12-03T11:46:52.331Z,37.37
2022-12-03T11:49:31.608Z,37.87
2022-12-03T11:52:03.451Z,38.80
2022-12-03T11:54:38.481Z,38.10
2022-12-03T11:57:35.786Z,39.20
2022-12-03T12:00:26.900Z,36.00
2022-12-03T12:02:59.351Z,37.97
2022-12-03T12:05:32.563Z,38.93
2022-12-03T12:08:03.822Z,37.57
2022-12-03T12:10:50.549Z,36.13
2022-12-03T12:13:57.078Z,38.30
2022-12-03T12:16:50.198Z,37.10
2022-12-03T12:19:35.127Z,38.20
2022-12-03T12:22:32.193Z,38.43
2022-12-03T12:25:03.498Z,38.53
2022-12-03T12:27:39.505Z,39.63
2022-12-03T12:30:12.821Z,37.70
2022-12-03T12:32:48.048Z,38.33
2022-12-03T12:35:20.970Z,37.63
2022-12-03T12:37:59.193Z,38.50
2022-12-03T12:40:32.102Z,40.77
2022-12-03T12:43:13.261Z,40.83
2022-12-03T12:45:47.252Z,38.53
2022-12-03T12:48:25.229Z,40.07
2022-12-03T12:51:02.839Z,39.57
2022-12-03T12:53:34.522Z,39.20
2022-12-03T12:56:14.937Z,40.37
2022-12-03T12:58:47.063Z,38.77
2022-12-03T13:01:23.188Z,38.93
2022-12-03T13:03:54.790Z,39.43
2022-12-03T13:06:28.799Z,40.07
2022-12-03T13:09:01.153Z,40.90
2022-12-03T13:11:41.404Z,40.07
2022-12-03T13:14:19.730Z,38.33
2022-12-03T13:16:50.984Z,39.27
2022-12-03T13:19:26.175Z,39.67
2022-12-03T13:21:57.613Z,38.80
2022-12-03T13:24:32.948Z,40.80
2022-12-03T13:27:05.209Z,39.50
2022-12-03T13:29:37.548Z,40.40
2022-12-03T13:32:14.295Z,40.67
2022-12-03T13:34:44.918Z,41.00
2022-12-03T13:37:18.005Z,39.10
2022-12-03T13:39:50.476Z,39.90
2022-12-03T13:42:36.044Z,42.03
2022-12-03T13:45:25.323Z,40.73
2022-12-03T13:47:58.407Z,39.77
2022-12-03T13:50:34.549Z,40.90
2022-12-03T13:53:04.607Z,38.57
2022-12-03T13:55:34.515Z,39.57
2022-12-03T13:58:04.043Z,40.63
2022-12-03T14:00:36.302Z,39.20
2022-12-03T14:03:05.986Z,39.63
2022-12-03T14:05:35.649Z,40.70
2022-12-03T14:08:07.743Z,42.40
2022-12-03T14:10:37.470Z,42.40
2022-12-03T14:13:06.933Z,39.70
2022-12-03T14:15:39.164Z,41.17
2022-12-03T14:18:08.861Z,42.67
2022-12-03T14:20:38.482Z,39.37
2022-12-03T14:23:07.979Z,39.10
2022-12-03T14:25:37.624Z,40.00
2022-12-03T14:28:08.716Z,43.97
2022-12-03T14:30:41.064Z,41.50
2022-12-03T14:33:10.650Z,43.40
2022-12-03T14:35:40.221Z,41.27
2022-12-03T14:38:09.757Z,39.20
2022-12-03T14:40:39.327Z,40.37
2022-12-03T14:43:08.912Z,38.30
2022-12-03T14:45:41.073Z,39.67
2022-12-03T14:48:10.834Z,40.03
2022-12-03T14:50:40.312Z,37.23
2022-12-03T14:53:09.746Z,39.83
2022-12-03T14:55:39.278Z,38.57
2022-12-03T14:58:08.763Z,38.13
2022-12-03T15:00:40.966Z,39.43
2022-12-03T15:03:10.586Z,38.17
2022-12-03T15:05:40.104Z,37.77
2022-12-03T15:08:09.833Z,37.73
2022-12-03T15:10:39.411Z,39.37
2022-12-03T15:13:08.881Z,37.47
2022-12-03T15:15:41.119Z,37.93
2022-12-03T15:18:10.632Z,37.87
2022-12-03T15:20:40.422Z,38.00
2022-12-03T15:23:14.329Z,49.33
2022-12-03T15:25:44.590Z,40.23
2022-12-03T15:28:14.186Z,39.00
2022-12-03T15:30:46.316Z,35.40
2022-12-03T15:33:16.130Z,36.13
2022-12-03T15:35:45.690Z,35.73
2022-12-03T15:38:15.576Z,35.23
2022-12-03T15:40:45.137Z,35.40
2022-12-03T15:43:14.960Z,36.40
2022-12-03T15:45:47.230Z,36.00
2022-12-03T15:48:16.774Z,35.83
2022-12-03T15:51:10.615Z,34.77
2022-12-03T15:53:40.360Z,35.33
2022-12-03T15:56:11.994Z,36.30
2022-12-03T15:58:41.442Z,35.43
2022-12-03T16:01:14.296Z,38.73
2022-12-03T16:03:44.066Z,67.07
2022-12-03T16:06:18.180Z,35.83
2022-12-03T16:08:48.324Z,35.33
2022-12-03T16:11:17.842Z,35.00
2022-12-03T16:13:47.442Z,34.17
2022-12-03T16:16:19.685Z,32.07
2022-12-03T16:18:49.275Z,33.03
2022-12-03T16:21:23.367Z,34.40
2022-12-03T16:23:55.943Z,34.60
2022-12-03T16:26:25.886Z,34.67
2022-12-03T16:28:55.456Z,35.13
2022-12-03T16:31:27.847Z,34.30
2022-12-03T16:33:57.494Z,34.27
2022-12-03T16:36:27.047Z,34.53
2022-12-03T16:38:56.698Z,34.87
2022-12-03T16:41:26.345Z,34.53
2022-12-03T16:43:55.912Z,34.67
2022-12-03T16:46:28.516Z,35.77
2022-12-03T16:48:59.619Z,34.73
2022-12-03T16:51:30.740Z,33.73
2022-12-03T16:54:00.286Z,33.97
2022-12-03T16:56:29.809Z,34.67
2022-12-03T16:58:59.451Z,36.23
2022-12-03T17:01:32.231Z,36.83
2022-12-03T17:04:01.925Z,34.80
2022-12-03T17:06:31.499Z,37.27
2022-12-03T17:09:01.023Z,36.83
2022-12-03T17:11:30.660Z,36.57
2022-12-03T17:14:00.248Z,35.73
2022-12-03T17:16:32.647Z,37.00
2022-12-03T17:19:02.174Z,37.33
2022-12-03T17:21:34.852Z,36.07
2022-12-03T17:24:04.771Z,35.30
2022-12-03T17:26:34.260Z,36.80
2022-12-03T17:29:03.753Z,35.20
2022-12-03T17:31:41.704Z,36.73
2022-12-03T17:34:11.928Z,36.83
2022-12-03T17:36:41.466Z,36.13
2022-12-03T17:39:11.161Z,35.67
2022-12-03T17:41:40.796Z,38.20
2022-12-03T17:44:12.932Z,35.73
2022-12-03T17:46:47.426Z,36.67
2022-12-03T17:49:16.936Z,35.77
2022-12-03T17:51:46.422Z,34.43
2022-12-03T17:54:16.015Z,37.97
2022-12-03T17:56:45.640Z,38.67
2022-12-03T17:59:16.059Z,36.77
2022-12-03T18:01:48.219Z,36.70
2022-12-03T18:04:17.910Z,38.13
2022-12-03T18:06:47.454Z,35.53
2022-12-03T18:09:16.947Z,38.33
2022-12-03T18:11:46.733Z,37.90
2022-12-03T18:14:16.355Z,36.57
2022-12-03T18:16:48.496Z,38.20
2022-12-03T18:19:18.022Z,37.57
2022-12-03T18:21:47.587Z,37.30
2022-12-03T18:24:17.350Z,37.40
2022-12-03T18:26:46.983Z,36.90
2022-12-03T18:29:16.680Z,37.43
2022-12-03T18:31:48.879Z,38.37
2022-12-03T18:34:18.455Z,42.43
2022-12-03T18:36:48.685Z,41.80
2022-12-03T18:39:26.477Z,38.97
2022-12-03T18:41:56.700Z,47.47
2022-12-03T18:44:26.280Z,42.50
2022-12-03T18:46:59.230Z,41.30
2022-12-03T18:49:28.820Z,45.50
2022-12-03T18:51:59.696Z,42.67
2022-12-03T18:54:29.489Z,42.23
2022-12-03T18:56:59.180Z,42.33
2022-12-03T18:59:28.699Z,68.50
2022-12-03T19:02:01.374Z,41.27
2022-12-03T19:04:31.131Z,39.83
2022-12-03T19:07:00.654Z,50.57
2022-12-03T19:09:30.593Z,46.10
2022-12-03T19:12:00.181Z,42.17
2022-12-03T19:14:29.701Z,53.10
2022-12-03T19:17:01.934Z,41.70
2022-12-03T19:19:32.361Z,40.60
2022-12-03T19:22:02.154Z,41.77
2022-12-03T19:24:31.729Z,39.03
2022-12-03T19:27:01.223Z,41.20
2022-12-03T19:29:30.792Z,42.43
2022-12-03T19:32:03.356Z,40.60
2022-12-03T19:34:33.340Z,41.63
2022-12-03T19:37:03.127Z,42.90
2022-12-03T19:39:33.359Z,48.90
2022-12-03T19:42:02.983Z,44.33
2022-12-03T19:44:33.316Z,41.80
2022-12-03T19:47:05.614Z,41.63
2022-12-03T19:49:35.495Z,40.97
2022-12-03T19:52:05.006Z,40.37
2022-12-03T19:54:34.562Z,42.87
2022-12-03T19:57:04.142Z,44.77
2022-12-03T19:59:33.824Z,42.40
2022-12-03T20:02:06.089Z,42.30
2022-12-03T20:04:35.769Z,40.23
2022-12-03T20:07:05.294Z,42.17
2022-12-03T20:09:34.965Z,42.03
2022-12-03T20:12:04.504Z,41.10
2022-12-03T20:14:34.059Z,42.20
2022-12-03T20:17:06.431Z,44.20
2022-12-03T20:19:36.055Z,42.63
2022-12-03T20:22:05.624Z,43.20
2022-12-03T20:24:35.196Z,43.93
2022-12-03T20:27:04.803Z,41.63
2022-12-03T20:29:34.288Z,41.53
2022-12-03T20:32:07.134Z,42.87
2022-12-03T20:34:37.083Z,41.53
2022-12-03T20:37:06.643Z,42.50
2022-12-03T20:39:36.315Z,45.13
2022-12-03T20:42:06.015Z,42.67
2022-12-03T20:44:35.490Z,43.37
2022-12-03T20:47:07.997Z,44.23
2022-12-03T20:49:39.097Z,43.17
2022-12-03T20:52:08.799Z,45.70
2022-12-03T20:54:38.351Z,45.50
2022-12-03T20:57:07.995Z,45.77
2022-12-03T20:59:37.550Z,44.83
2022-12-03T21:02:09.701Z,46.13
2022-12-03T21:04:39.404Z,43.57
2022-12-03T21:07:08.894Z,46.67
2022-12-03T21:09:38.523Z,46.40
2022-12-03T21:12:08.316Z,44.73
2022-12-03T21:14:38.351Z,45.13
2022-12-03T21:17:10.566Z,44.47
2022-12-03T21:19:40.529Z,47.53
2022-12-03T21:22:10.563Z,46.07
2022-12-03T21:24:42.812Z,45.83
2022-12-03T21:27:16.939Z,47.23
2022-12-03T21:29:49.533Z,47.13
2022-12-03T21:32:21.716Z,44.37
2022-12-03T21:34:51.286Z,47.70
2022-12-03T21:37:20.843Z,46.53
2022-12-03T21:39:50.459Z,46.17
2022-12-03T21:42:35.734Z,46.30
2022-12-03T21:45:07.473Z,47.80
2022-12-03T21:47:39.778Z,46.33
2022-12-03T21:50:12.075Z,45.10
2022-12-03T21:52:41.597Z,46.17
2022-12-03T21:55:12.564Z,46.00
2022-12-03T21:57:42.117Z,45.57
2022-12-03T22:00:13.023Z,47.70
2022-12-03T22:02:45.422Z,46.13
2022-12-03T22:05:15.234Z,48.57
2022-12-03T22:07:45.028Z,46.93
2022-12-03T22:10:15.626Z,48.50
2022-12-03T22:12:45.518Z,46.27
2022-12-03T22:15:19.210Z,47.67
2022-12-03T22:17:51.831Z,46.63
2022-12-03T22:20:21.836Z,46.60
2022-12-03T22:22:51.506Z,47.40
2022-12-03T22:25:21.170Z,48.03
2022-12-03T22:27:50.719Z,47.00
2022-12-03T22:30:20.347Z,46.20
2022-12-03T22:32:52.568Z,45.63
2022-12-03T22:35:22.101Z,45.53
2022-12-03T22:37:51.669Z,45.43
2022-12-03T22:40:21.438Z,46.37
2022-12-03T22:42:51.271Z,46.37
2022-12-03T22:45:20.891Z,47.00
2022-12-03T22:47:53.044Z,44.97
2022-12-03T22:50:22.577Z,46.63
2022-12-03T22:52:52.110Z,49.73
2022-12-03T22:55:21.758Z,61.57
2022-12-03T22:57:51.559Z,48.57
2022-12-03T23:00:31.828Z,45.40
2022-12-03T23:03:04.565Z,45.57
2022-12-03T23:05:37.056Z,44.20
2022-12-03T23:08:06.956Z,45.03
2022-12-03T23:10:37.794Z,45.47
2022-12-03T23:13:08.565Z,44.97
2022-12-03T23:15:38.798Z,44.87
2022-12-03T23:18:11.190Z,45.47
2022-12-03T23:20:45.117Z,46.27
2022-12-03T23:23:15.437Z,43.97
2022-12-03T23:25:45.305Z,47.63
2022-12-03T23:28:15.251Z,43.97
2022-12-03T23:30:44.811Z,45.03
2022-12-03T23:33:17.036Z,44.83
2022-12-03T23:35:46.637Z,44.43
2022-12-03T23:38:16.353Z,44.40
2022-12-03T23:40:48.643Z,43.87
2022-12-03T23:43:18.552Z,42.63
2022-12-03T23:45:48.236Z,43.73
2022-12-03T23:48:20.336Z,46.50
2022-12-03T23:50:50.089Z,46.10
2022-12-03T23:53:19.644Z,44.63
2022-12-03T23:55:49.223Z,44.43
2022-12-03T23:58:19.099Z,45.70
